sensor_id;sensor_type;location;lat;lon;timestamp;P1;durP1;ratioP1;P2;durP2;ratioP2
82574;SDS011;72260;65.870;13.210;2024-03-23T00:53:00;3.55;;;1.48;;
82574;SDS011;72260;65.870;13.210;2024-03-23T00:55:26;1.90;;;1.25;;
82574;SDS011;72260;65.870;13.210;2024-03-23T00:57:52;3.45;;;1.60;;
82574;SDS011;72260;65.870;13.210;2024-03-23T01:00:18;3.92;;;1.60;;
82574;SDS011;72260;65.870;13.210;2024-03-23T01:02:43;2.35;;;1.13;;
82574;SDS011;72260;65.870;13.210;2024-03-23T01:05:09;4.68;;;1.85;;
82574;SDS011;72260;65.870;13.210;2024-03-23T01:07:34;2.50;;;1.60;;
82574;SDS011;72260;65.870;13.210;2024-03-23T01:10:00;23.52;;;8.30;;
82574;SDS011;72260;65.870;13.210;2024-03-23T01:12:25;17.85;;;8.60;;
82574;SDS011;72260;65.870;13.210;2024-03-23T01:14:51;6.32;;;3.05;;
82574;SDS011;72260;65.870;13.210;2024-03-23T01:17:16;4.45;;;1.88;;
82574;SDS011;72260;65.870;13.210;2024-03-23T01:19:42;3.25;;;1.50;;
82574;SDS011;72260;65.870;13.210;2024-03-23T01:22:07;3.55;;;1.48;;
82574;SDS011;72260;65.870;13.210;2024-03-23T01:24:35;2.15;;;1.15;;
82574;SDS011;72260;65.870;13.210;2024-03-23T01:27:00;6.53;;;1.40;;
82574;SDS011;72260;65.870;13.210;2024-03-23T01:29:26;3.15;;;1.40;;
82574;SDS011;72260;65.870;13.210;2024-03-23T01:31:51;3.38;;;1.30;;
82574;SDS011;72260;65.870;13.210;2024-03-23T01:34:17;2.67;;;1.33;;
82574;SDS011;72260;65.870;13.210;2024-03-23T01:36:42;5.20;;;1.20;;
82574;SDS011;72260;65.870;13.210;2024-03-23T01:39:08;9.25;;;1.88;;
82574;SDS011;72260;65.870;13.210;2024-03-23T01:41:36;3.80;;;2.20;;
82574;SDS011;72260;65.870;13.210;2024-03-23T01:44:04;5.80;;;2.65;;
82574;SDS011;72260;65.870;13.210;2024-03-23T01:46:32;5.72;;;2.30;;
82574;SDS011;72260;65.870;13.210;2024-03-23T01:48:58;4.40;;;2.30;;
82574;SDS011;72260;65.870;13.210;2024-03-23T01:51:24;5.35;;;2.22;;
82574;SDS011;72260;65.870;13.210;2024-03-23T01:53:50;3.72;;;2.00;;
82574;SDS011;72260;65.870;13.210;2024-03-23T01:56:16;5.05;;;1.92;;
82574;SDS011;72260;65.870;13.210;2024-03-23T01:58:41;3.95;;;1.73;;
82574;SDS011;72260;65.870;13.210;2024-03-23T02:01:06;2.67;;;1.60;;
82574;SDS011;72260;65.870;13.210;2024-03-23T02:03:32;2.08;;;1.20;;
82574;SDS011;72260;65.870;13.210;2024-03-23T02:05:58;5.00;;;1.63;;
82574;SDS011;72260;65.870;13.210;2024-03-23T02:08:24;3.13;;;1.50;;
82574;SDS011;72260;65.870;13.210;2024-03-23T02:10:50;3.67;;;1.05;;
82574;SDS011;72260;65.870;13.210;2024-03-23T02:13:16;2.67;;;1.33;;
82574;SDS011;72260;65.870;13.210;2024-03-23T02:15:42;3.13;;;1.33;;
82574;SDS011;72260;65.870;13.210;2024-03-23T02:18:08;22.42;;;7.18;;
82574;SDS011;72260;65.870;13.210;2024-03-23T02:20:34;16.92;;;6.72;;
82574;SDS011;72260;65.870;13.210;2024-03-23T02:23:00;3.78;;;2.20;;
82574;SDS011;72260;65.870;13.210;2024-03-23T02:25:26;3.05;;;1.23;;
82574;SDS011;72260;65.870;13.210;2024-03-23T02:27:51;1.70;;;1.10;;
82574;SDS011;72260;65.870;13.210;2024-03-23T02:30:19;5.40;;;1.83;;
82574;SDS011;72260;65.870;13.210;2024-03-23T02:32:45;2.30;;;1.20;;
82574;SDS011;72260;65.870;13.210;2024-03-23T02:35:10;1.73;;;0.93;;
82574;SDS011;72260;65.870;13.210;2024-03-23T02:37:36;3.05;;;1.38;;
82574;SDS011;72260;65.870;13.210;2024-03-23T02:40:01;3.97;;;1.50;;
82574;SDS011;72260;65.870;13.210;2024-03-23T02:42:27;2.10;;;1.30;;
82574;SDS011;72260;65.870;13.210;2024-03-23T02:44:53;11.68;;;3.25;;
82574;SDS011;72260;65.870;13.210;2024-03-23T02:47:19;7.07;;;2.40;;
82574;SDS011;72260;65.870;13.210;2024-03-23T02:49:44;2.75;;;1.60;;
82574;SDS011;72260;65.870;13.210;2024-03-23T02:52:10;3.30;;;1.98;;
82574;SDS011;72260;65.870;13.210;2024-03-23T02:54:35;4.88;;;1.77;;
82574;SDS011;72260;65.870;13.210;2024-03-23T02:57:01;6.28;;;2.20;;
82574;SDS011;72260;65.870;13.210;2024-03-23T02:59:27;5.53;;;1.92;;
82574;SDS011;72260;65.870;13.210;2024-03-23T03:01:55;3.30;;;1.80;;
82574;SDS011;72260;65.870;13.210;2024-03-23T03:04:21;3.88;;;1.48;;
82574;SDS011;72260;65.870;13.210;2024-03-23T03:06:47;4.18;;;1.63;;
82574;SDS011;72260;65.870;13.210;2024-03-23T03:09:13;5.18;;;1.52;;
82574;SDS011;72260;65.870;13.210;2024-03-23T03:11:38;4.00;;;1.73;;
82574;SDS011;72260;65.870;13.210;2024-03-23T03:14:04;4.72;;;1.60;;
82574;SDS011;72260;65.870;13.210;2024-03-23T03:16:32;2.90;;;1.48;;
82574;SDS011;72260;65.870;13.210;2024-03-23T03:18:57;1.77;;;1.10;;
82574;SDS011;72260;65.870;13.210;2024-03-23T03:21:23;3.38;;;1.70;;
82574;SDS011;72260;65.870;13.210;2024-03-23T03:23:48;1.83;;;1.27;;
82574;SDS011;72260;65.870;13.210;2024-03-23T03:26:16;5.13;;;1.80;;
82574;SDS011;72260;65.870;13.210;2024-03-23T03:28:42;3.53;;;1.83;;
82574;SDS011;72260;65.870;13.210;2024-03-23T03:31:09;7.30;;;2.10;;
82574;SDS011;72260;65.870;13.210;2024-03-23T03:33:34;3.65;;;1.60;;
82574;SDS011;72260;65.870;13.210;2024-03-23T03:36:00;7.40;;;2.30;;
82574;SDS011;72260;65.870;13.210;2024-03-23T03:38:25;4.55;;;2.03;;
82574;SDS011;72260;65.870;13.210;2024-03-23T03:40:51;4.10;;;2.00;;
82574;SDS011;72260;65.870;13.210;2024-03-23T03:43:17;4.00;;;1.98;;
82574;SDS011;72260;65.870;13.210;2024-03-23T03:45:50;3.40;;;2.00;;
82574;SDS011;72260;65.870;13.210;2024-03-23T03:48:17;5.65;;;1.83;;
82574;SDS011;72260;65.870;13.210;2024-03-23T03:50:42;7.05;;;2.38;;
82574;SDS011;72260;65.870;13.210;2024-03-23T03:53:07;7.05;;;2.75;;
82574;SDS011;72260;65.870;13.210;2024-03-23T03:55:33;9.15;;;3.03;;
82574;SDS011;72260;65.870;13.210;2024-03-23T03:57:58;6.95;;;2.17;;
82574;SDS011;72260;65.870;13.210;2024-03-23T04:00:24;9.43;;;2.47;;
82574;SDS011;72260;65.870;13.210;2024-03-23T04:02:50;7.57;;;2.35;;
82574;SDS011;72260;65.870;13.210;2024-03-23T04:05:15;8.30;;;2.80;;
82574;SDS011;72260;65.870;13.210;2024-03-23T04:07:41;12.40;;;3.60;;
82574;SDS011;72260;65.870;13.210;2024-03-23T04:10:07;14.05;;;3.70;;
82574;SDS011;72260;65.870;13.210;2024-03-23T04:12:33;8.48;;;3.60;;
82574;SDS011;72260;65.870;13.210;2024-03-23T04:14:59;12.60;;;3.90;;
82574;SDS011;72260;65.870;13.210;2024-03-23T04:17:25;10.90;;;3.70;;
82574;SDS011;72260;65.870;13.210;2024-03-23T04:19:56;9.32;;;3.15;;
82574;SDS011;72260;65.870;13.210;2024-03-23T04:22:22;6.78;;;2.70;;
82574;SDS011;72260;65.870;13.210;2024-03-23T04:24:49;9.00;;;3.25;;
82574;SDS011;72260;65.870;13.210;2024-03-23T04:27:14;5.78;;;3.25;;
82574;SDS011;72260;65.870;13.210;2024-03-23T04:29:40;8.40;;;2.78;;
82574;SDS011;72260;65.870;13.210;2024-03-23T04:32:05;5.00;;;1.90;;
82574;SDS011;72260;65.870;13.210;2024-03-23T04:34:31;4.32;;;2.03;;
82574;SDS011;72260;65.870;13.210;2024-03-23T04:36:58;7.70;;;2.63;;
82574;SDS011;72260;65.870;13.210;2024-03-23T04:39:23;4.18;;;2.25;;
82574;SDS011;72260;65.870;13.210;2024-03-23T04:41:49;4.38;;;1.85;;
82574;SDS011;72260;65.870;13.210;2024-03-23T04:44:15;3.78;;;2.03;;
82574;SDS011;72260;65.870;13.210;2024-03-23T04:46:40;3.05;;;1.55;;
82574;SDS011;72260;65.870;13.210;2024-03-23T04:49:06;2.47;;;1.48;;
82574;SDS011;72260;65.870;13.210;2024-03-23T04:51:37;3.65;;;1.60;;
82574;SDS011;72260;65.870;13.210;2024-03-23T04:54:03;2.72;;;1.60;;
82574;SDS011;72260;65.870;13.210;2024-03-23T04:56:29;4.85;;;1.60;;
82574;SDS011;72260;65.870;13.210;2024-03-23T04:58:56;4.07;;;1.63;;
82574;SDS011;72260;65.870;13.210;2024-03-23T05:01:26;1.95;;;1.40;;
82574;SDS011;72260;65.870;13.210;2024-03-23T05:03:52;1.88;;;1.30;;
82574;SDS011;72260;65.870;13.210;2024-03-23T05:06:18;1.85;;;1.30;;
82574;SDS011;72260;65.870;13.210;2024-03-23T05:08:44;4.20;;;1.40;;
82574;SDS011;72260;65.870;13.210;2024-03-23T05:11:11;3.20;;;1.27;;
82574;SDS011;72260;65.870;13.210;2024-03-23T05:13:37;2.78;;;1.30;;
82574;SDS011;72260;65.870;13.210;2024-03-23T05:16:02;4.50;;;1.40;;
82574;SDS011;72260;65.870;13.210;2024-03-23T05:18:29;4.20;;;1.15;;
82574;SDS011;72260;65.870;13.210;2024-03-23T05:20:56;3.15;;;0.98;;
82574;SDS011;72260;65.870;13.210;2024-03-23T05:23:22;2.42;;;1.10;;
82574;SDS011;72260;65.870;13.210;2024-03-23T05:25:48;1.13;;;0.90;;
82574;SDS011;72260;65.870;13.210;2024-03-23T05:28:14;1.25;;;0.90;;
82574;SDS011;72260;65.870;13.210;2024-03-23T05:30:39;1.27;;;0.88;;
82574;SDS011;72260;65.870;13.210;2024-03-23T05:33:05;1.65;;;0.75;;
82574;SDS011;72260;65.870;13.210;2024-03-23T05:35:31;0.90;;;0.80;;
82574;SDS011;72260;65.870;13.210;2024-03-23T05:37:57;2.80;;;1.08;;
82574;SDS011;72260;65.870;13.210;2024-03-23T05:40:23;11.52;;;1.63;;
82574;SDS011;72260;65.870;13.210;2024-03-23T05:42:50;0.60;;;0.60;;
82574;SDS011;72260;65.870;13.210;2024-03-23T05:45:21;0.75;;;0.70;;
82574;SDS011;72260;65.870;13.210;2024-03-23T05:47:47;0.95;;;0.85;;
82574;SDS011;72260;65.870;13.210;2024-03-23T05:50:13;0.45;;;0.45;;
82574;SDS011;72260;65.870;13.210;2024-03-23T05:52:39;0.73;;;0.73;;
82574;SDS011;72260;65.870;13.210;2024-03-23T05:55:05;2.50;;;0.70;;
82574;SDS011;72260;65.870;13.210;2024-03-23T05:57:31;0.93;;;0.80;;
82574;SDS011;72260;65.870;13.210;2024-03-23T05:59:56;1.05;;;0.70;;
82574;SDS011;72260;65.870;13.210;2024-03-23T06:02:23;0.93;;;0.60;;
82574;SDS011;72260;65.870;13.210;2024-03-23T06:04:49;1.55;;;0.80;;
82574;SDS011;72260;65.870;13.210;2024-03-23T06:07:15;0.38;;;0.35;;
82574;SDS011;72260;65.870;13.210;2024-03-23T06:09:41;1.10;;;0.60;;
82574;SDS011;72260;65.870;13.210;2024-03-23T06:12:07;0.50;;;0.47;;
82574;SDS011;72260;65.870;13.210;2024-03-23T06:14:33;0.38;;;0.25;;
82574;SDS011;72260;65.870;13.210;2024-03-23T06:16:59;0.28;;;0.20;;
82574;SDS011;72260;65.870;13.210;2024-03-23T06:19:25;0.47;;;0.45;;
82574;SDS011;72260;65.870;13.210;2024-03-23T06:21:53;0.38;;;0.32;;
82574;SDS011;72260;65.870;13.210;2024-03-23T06:24:19;0.30;;;0.30;;
82574;SDS011;72260;65.870;13.210;2024-03-23T06:26:46;0.40;;;0.25;;
82574;SDS011;72260;65.870;13.210;2024-03-23T06:29:12;1.25;;;0.35;;
82574;SDS011;72260;65.870;13.210;2024-03-23T06:31:40;0.45;;;0.45;;
82574;SDS011;72260;65.870;13.210;2024-03-23T06:34:06;0.35;;;0.17;;
82574;SDS011;72260;65.870;13.210;2024-03-23T06:36:31;0.30;;;0.30;;
82574;SDS011;72260;65.870;13.210;2024-03-23T06:38:57;0.40;;;0.35;;
82574;SDS011;72260;65.870;13.210;2024-03-23T06:41:23;0.28;;;0.28;;
82574;SDS011;72260;65.870;13.210;2024-03-23T06:43:49;0.20;;;0.20;;
82574;SDS011;72260;65.870;13.210;2024-03-23T06:46:15;0.28;;;0.28;;
82574;SDS011;72260;65.870;13.210;2024-03-23T06:48:40;0.20;;;0.20;;
82574;SDS011;72260;65.870;13.210;2024-03-23T06:51:06;0.35;;;0.32;;
82574;SDS011;72260;65.870;13.210;2024-03-23T06:53:31;0.30;;;0.30;;
82574;SDS011;72260;65.870;13.210;2024-03-23T06:55:57;0.35;;;0.35;;
82574;SDS011;72260;65.870;13.210;2024-03-23T06:58:24;0.40;;;0.40;;
82574;SDS011;72260;65.870;13.210;2024-03-23T07:00:50;0.57;;;0.35;;
82574;SDS011;72260;65.870;13.210;2024-03-23T07:03:19;0.30;;;0.30;;
82574;SDS011;72260;65.870;13.210;2024-03-23T07:05:46;0.52;;;0.52;;
82574;SDS011;72260;65.870;13.210;2024-03-23T07:08:12;0.35;;;0.32;;
82574;SDS011;72260;65.870;13.210;2024-03-23T07:10:40;0.30;;;0.30;;
82574;SDS011;72260;65.870;13.210;2024-03-23T07:13:06;0.30;;;0.30;;
82574;SDS011;72260;65.870;13.210;2024-03-23T07:15:31;0.10;;;0.10;;
82574;SDS011;72260;65.870;13.210;2024-03-23T07:17:57;0.25;;;0.22;;
82574;SDS011;72260;65.870;13.210;2024-03-23T07:20:22;0.25;;;0.25;;
82574;SDS011;72260;65.870;13.210;2024-03-23T07:22:48;0.20;;;0.20;;
82574;SDS011;72260;65.870;13.210;2024-03-23T07:25:14;0.57;;;0.40;;
82574;SDS011;72260;65.870;13.210;2024-03-23T07:27:39;0.25;;;0.25;;
82574;SDS011;72260;65.870;13.210;2024-03-23T07:30:05;0.40;;;0.20;;
82574;SDS011;72260;65.870;13.210;2024-03-23T07:32:31;0.22;;;0.22;;
82574;SDS011;72260;65.870;13.210;2024-03-23T07:34:57;0.17;;;0.17;;
82574;SDS011;72260;65.870;13.210;2024-03-23T07:37:22;0.10;;;0.10;;
82574;SDS011;72260;65.870;13.210;2024-03-23T07:39:48;0.55;;;0.55;;
82574;SDS011;72260;65.870;13.210;2024-03-23T07:42:13;0.20;;;0.20;;
82574;SDS011;72260;65.870;13.210;2024-03-23T07:44:39;0.30;;;0.30;;
82574;SDS011;72260;65.870;13.210;2024-03-23T07:47:05;0.30;;;0.30;;
82574;SDS011;72260;65.870;13.210;2024-03-23T07:49:30;0.40;;;0.35;;
82574;SDS011;72260;65.870;13.210;2024-03-23T07:51:56;0.50;;;0.47;;
82574;SDS011;72260;65.870;13.210;2024-03-23T07:54:21;0.57;;;0.35;;
82574;SDS011;72260;65.870;13.210;2024-03-23T07:56:47;0.32;;;0.30;;
82574;SDS011;72260;65.870;13.210;2024-03-23T07:59:12;0.40;;;0.40;;
82574;SDS011;72260;65.870;13.210;2024-03-23T08:01:38;0.25;;;0.22;;
82574;SDS011;72260;65.870;13.210;2024-03-23T08:04:03;0.20;;;0.20;;
82574;SDS011;72260;65.870;13.210;2024-03-23T08:06:29;0.32;;;0.28;;
82574;SDS011;72260;65.870;13.210;2024-03-23T08:08:55;0.93;;;0.38;;
82574;SDS011;72260;65.870;13.210;2024-03-23T08:11:28;0.63;;;0.55;;
82574;SDS011;72260;65.870;13.210;2024-03-23T08:13:54;0.75;;;0.43;;
82574;SDS011;72260;65.870;13.210;2024-03-23T08:16:20;0.10;;;0.10;;
82574;SDS011;72260;65.870;13.210;2024-03-23T08:18:45;0.40;;;0.30;;
82574;SDS011;72260;65.870;13.210;2024-03-23T08:21:11;0.22;;;0.22;;
82574;SDS011;72260;65.870;13.210;2024-03-23T08:23:37;0.32;;;0.32;;
82574;SDS011;72260;65.870;13.210;2024-03-23T08:26:03;0.35;;;0.28;;
82574;SDS011;72260;65.870;13.210;2024-03-23T08:28:30;0.30;;;0.30;;
82574;SDS011;72260;65.870;13.210;2024-03-23T08:30:56;0.10;;;0.10;;
82574;SDS011;72260;65.870;13.210;2024-03-23T08:33:22;0.20;;;0.20;;
82574;SDS011;72260;65.870;13.210;2024-03-23T08:35:57;0.73;;;0.70;;
82574;SDS011;72260;65.870;13.210;2024-03-23T08:38:24;0.30;;;0.30;;
82574;SDS011;72260;65.870;13.210;2024-03-23T08:40:58;0.32;;;0.32;;
82574;SDS011;72260;65.870;13.210;2024-03-23T08:43:25;0.40;;;0.38;;
82574;SDS011;72260;65.870;13.210;2024-03-23T08:45:50;0.08;;;0.08;;
82574;SDS011;72260;65.870;13.210;2024-03-23T08:48:17;2.33;;;1.42;;
82574;SDS011;72260;65.870;13.210;2024-03-23T08:50:43;0.45;;;0.40;;
82574;SDS011;72260;65.870;13.210;2024-03-23T08:53:09;0.30;;;0.30;;
82574;SDS011;72260;65.870;13.210;2024-03-23T08:55:34;0.30;;;0.20;;
82574;SDS011;72260;65.870;13.210;2024-03-23T08:58:00;0.45;;;0.32;;
82574;SDS011;72260;65.870;13.210;2024-03-23T09:00:26;0.22;;;0.20;;
82574;SDS011;72260;65.870;13.210;2024-03-23T09:02:51;0.47;;;0.10;;
82574;SDS011;72260;65.870;13.210;2024-03-23T09:05:18;0.13;;;0.13;;
82574;SDS011;72260;65.870;13.210;2024-03-23T09:07:43;0.17;;;0.17;;
82574;SDS011;72260;65.870;13.210;2024-03-23T09:10:09;0.22;;;0.22;;
82574;SDS011;72260;65.870;13.210;2024-03-23T09:12:34;0.30;;;0.28;;
82574;SDS011;72260;65.870;13.210;2024-03-23T09:15:01;0.40;;;0.40;;
82574;SDS011;72260;65.870;13.210;2024-03-23T09:17:26;0.13;;;0.13;;
82574;SDS011;72260;65.870;13.210;2024-03-23T09:19:52;0.28;;;0.28;;
82574;SDS011;72260;65.870;13.210;2024-03-23T09:22:17;0.13;;;0.10;;
82574;SDS011;72260;65.870;13.210;2024-03-23T09:24:43;0.22;;;0.22;;
82574;SDS011;72260;65.870;13.210;2024-03-23T09:27:08;0.10;;;0.10;;
82574;SDS011;72260;65.870;13.210;2024-03-23T09:29:34;0.20;;;0.20;;
82574;SDS011;72260;65.870;13.210;2024-03-23T09:31:59;0.30;;;0.30;;
82574;SDS011;72260;65.870;13.210;2024-03-23T09:34:25;0.25;;;0.25;;
82574;SDS011;72260;65.870;13.210;2024-03-23T09:36:51;0.10;;;0.10;;
82574;SDS011;72260;65.870;13.210;2024-03-23T09:39:17;0.10;;;0.10;;
82574;SDS011;72260;65.870;13.210;2024-03-23T09:41:43;0.40;;;0.40;;
82574;SDS011;72260;65.870;13.210;2024-03-23T09:44:08;0.28;;;0.28;;
82574;SDS011;72260;65.870;13.210;2024-03-23T09:46:34;0.40;;;0.40;;
82574;SDS011;72260;65.870;13.210;2024-03-23T09:49:01;0.40;;;0.40;;
82574;SDS011;72260;65.870;13.210;2024-03-23T09:51:30;0.20;;;0.20;;
82574;SDS011;72260;65.870;13.210;2024-03-23T09:53:56;0.13;;;0.13;;
82574;SDS011;72260;65.870;13.210;2024-03-23T09:56:22;0.22;;;0.22;;
82574;SDS011;72260;65.870;13.210;2024-03-23T09:58:48;0.68;;;0.30;;
82574;SDS011;72260;65.870;13.210;2024-03-23T10:01:14;0.13;;;0.13;;
82574;SDS011;72260;65.870;13.210;2024-03-23T10:03:46;0.55;;;0.47;;
82574;SDS011;72260;65.870;13.210;2024-03-23T10:06:13;0.17;;;0.17;;
82574;SDS011;72260;65.870;13.210;2024-03-23T10:08:38;0.40;;;0.40;;
82574;SDS011;72260;65.870;13.210;2024-03-23T10:11:13;0.43;;;0.30;;
82574;SDS011;72260;65.870;13.210;2024-03-23T10:13:44;0.10;;;0.10;;
82574;SDS011;72260;65.870;13.210;2024-03-23T10:16:12;0.30;;;0.30;;
82574;SDS011;72260;65.870;13.210;2024-03-23T10:18:45;1.00;;;0.15;;
82574;SDS011;72260;65.870;13.210;2024-03-23T10:21:11;0.25;;;0.25;;
82574;SDS011;72260;65.870;13.210;2024-03-23T10:23:40;0.30;;;0.22;;
82574;SDS011;72260;65.870;13.210;2024-03-23T10:26:21;0.40;;;0.40;;
82574;SDS011;72260;65.870;13.210;2024-03-23T10:28:55;0.05;;;0.05;;
82574;SDS011;72260;65.870;13.210;2024-03-23T10:31:28;0.80;;;0.50;;
82574;SDS011;72260;65.870;13.210;2024-03-23T10:33:55;0.00;;;0.00;;
82574;SDS011;72260;65.870;13.210;2024-03-23T10:36:21;1.45;;;0.30;;
82574;SDS011;72260;65.870;13.210;2024-03-23T10:38:47;0.30;;;0.30;;
82574;SDS011;72260;65.870;13.210;2024-03-23T10:41:15;0.75;;;0.32;;
82574;SDS011;72260;65.870;13.210;2024-03-23T10:43:41;0.10;;;0.10;;
82574;SDS011;72260;65.870;13.210;2024-03-23T10:46:10;0.55;;;0.43;;
82574;SDS011;72260;65.870;13.210;2024-03-23T10:48:35;0.40;;;0.20;;
82574;SDS011;72260;65.870;13.210;2024-03-23T10:51:01;0.30;;;0.30;;
82574;SDS011;72260;65.870;13.210;2024-03-23T10:53:28;0.20;;;0.20;;
82574;SDS011;72260;65.870;13.210;2024-03-23T10:55:54;0.80;;;0.60;;
82574;SDS011;72260;65.870;13.210;2024-03-23T10:58:23;1.02;;;0.57;;
82574;SDS011;72260;65.870;13.210;2024-03-23T11:00:54;0.52;;;0.40;;
82574;SDS011;72260;65.870;13.210;2024-03-23T11:03:35;18.83;;;2.80;;
82574;SDS011;72260;65.870;13.210;2024-03-23T11:06:05;0.20;;;0.20;;
82574;SDS011;72260;65.870;13.210;2024-03-23T11:11:13;0.35;;;0.30;;
82574;SDS011;72260;65.870;13.210;2024-03-23T11:13:51;0.10;;;0.05;;
82574;SDS011;72260;65.870;13.210;2024-03-23T11:16:25;0.40;;;0.22;;
82574;SDS011;72260;65.870;13.210;2024-03-23T11:22:03;1.35;;;0.98;;
82574;SDS011;72260;65.870;13.210;2024-03-23T11:24:30;0.65;;;0.20;;
82574;SDS011;72260;65.870;13.210;2024-03-23T11:26:56;3.63;;;2.22;;
82574;SDS011;72260;65.870;13.210;2024-03-23T11:29:25;9.68;;;2.15;;
82574;SDS011;72260;65.870;13.210;2024-03-23T11:31:51;2.67;;;1.10;;
82574;SDS011;72260;65.870;13.210;2024-03-23T11:34:21;4.20;;;0.60;;
82574;SDS011;72260;65.870;13.210;2024-03-23T11:36:47;1.90;;;0.50;;
82574;SDS011;72260;65.870;13.210;2024-03-23T11:39:16;0.10;;;0.10;;
82574;SDS011;72260;65.870;13.210;2024-03-23T11:41:52;1.17;;;0.50;;
82574;SDS011;72260;65.870;13.210;2024-03-23T11:44:23;2.15;;;1.17;;
82574;SDS011;72260;65.870;13.210;2024-03-23T11:46:51;0.40;;;0.40;;
82574;SDS011;72260;65.870;13.210;2024-03-23T11:51:48;0.30;;;0.28;;
82574;SDS011;72260;65.870;13.210;2024-03-23T11:54:21;0.20;;;0.17;;
82574;SDS011;72260;65.870;13.210;2024-03-23T11:56:58;0.30;;;0.30;;
82574;SDS011;72260;65.870;13.210;2024-03-23T11:59:34;0.35;;;0.35;;
82574;SDS011;72260;65.870;13.210;2024-03-23T12:02:11;0.20;;;0.20;;
82574;SDS011;72260;65.870;13.210;2024-03-23T12:04:39;1.45;;;0.38;;
82574;SDS011;72260;65.870;13.210;2024-03-23T12:09:43;0.20;;;0.20;;
82574;SDS011;72260;65.870;13.210;2024-03-23T12:12:13;0.43;;;0.40;;
82574;SDS011;72260;65.870;13.210;2024-03-23T12:14:43;13.05;;;0.85;;
82574;SDS011;72260;65.870;13.210;2024-03-23T12:17:13;0.35;;;0.30;;
82574;SDS011;72260;65.870;13.210;2024-03-23T12:19:39;0.43;;;0.40;;
82574;SDS011;72260;65.870;13.210;2024-03-23T12:22:06;0.45;;;0.45;;
82574;SDS011;72260;65.870;13.210;2024-03-23T12:24:33;0.35;;;0.20;;
82574;SDS011;72260;65.870;13.210;2024-03-23T12:27:01;0.85;;;0.40;;
82574;SDS011;72260;65.870;13.210;2024-03-23T12:29:28;1.13;;;0.40;;
82574;SDS011;72260;65.870;13.210;2024-03-23T12:32:00;3.58;;;0.35;;
82574;SDS011;72260;65.870;13.210;2024-03-23T12:34:26;0.28;;;0.28;;
82574;SDS011;72260;65.870;13.210;2024-03-23T12:36:53;0.20;;;0.20;;
82574;SDS011;72260;65.870;13.210;2024-03-23T12:39:18;0.60;;;0.43;;
82574;SDS011;72260;65.870;13.210;2024-03-23T12:41:46;0.45;;;0.45;;
82574;SDS011;72260;65.870;13.210;2024-03-23T12:44:12;1.05;;;0.32;;
82574;SDS011;72260;65.870;13.210;2024-03-23T12:46:38;0.43;;;0.30;;
82574;SDS011;72260;65.870;13.210;2024-03-23T12:49:04;1.10;;;0.82;;
82574;SDS011;72260;65.870;13.210;2024-03-23T12:51:31;0.90;;;0.28;;
82574;SDS011;72260;65.870;13.210;2024-03-23T12:53:57;0.20;;;0.20;;
82574;SDS011;72260;65.870;13.210;2024-03-23T12:56:22;1.25;;;0.35;;
82574;SDS011;72260;65.870;13.210;2024-03-23T12:58:48;0.22;;;0.22;;
82574;SDS011;72260;65.870;13.210;2024-03-23T13:01:19;0.10;;;0.10;;
82574;SDS011;72260;65.870;13.210;2024-03-23T13:03:48;0.35;;;0.35;;
82574;SDS011;72260;65.870;13.210;2024-03-23T13:06:14;0.00;;;0.00;;
82574;SDS011;72260;65.870;13.210;2024-03-23T13:08:40;0.20;;;0.20;;
82574;SDS011;72260;65.870;13.210;2024-03-23T13:11:08;0.20;;;0.20;;
82574;SDS011;72260;65.870;13.210;2024-03-23T13:13:35;0.20;;;0.20;;
82574;SDS011;72260;65.870;13.210;2024-03-23T13:16:01;0.70;;;0.50;;
82574;SDS011;72260;65.870;13.210;2024-03-23T13:18:28;0.35;;;0.35;;
82574;SDS011;72260;65.870;13.210;2024-03-23T13:20:54;0.50;;;0.50;;
82574;SDS011;72260;65.870;13.210;2024-03-23T13:23:20;2.15;;;0.50;;
82574;SDS011;72260;65.870;13.210;2024-03-23T13:25:52;0.10;;;0.10;;
82574;SDS011;72260;65.870;13.210;2024-03-23T13:28:19;0.90;;;0.90;;
82574;SDS011;72260;65.870;13.210;2024-03-23T13:30:55;0.90;;;0.55;;
82574;SDS011;72260;65.870;13.210;2024-03-23T13:33:23;1.30;;;0.35;;
82574;SDS011;72260;65.870;13.210;2024-03-23T13:35:52;0.25;;;0.25;;
82574;SDS011;72260;65.870;13.210;2024-03-23T13:38:20;0.20;;;0.20;;
82574;SDS011;72260;65.870;13.210;2024-03-23T13:40:53;0.50;;;0.47;;
82574;SDS011;72260;65.870;13.210;2024-03-23T13:43:19;0.55;;;0.20;;
82574;SDS011;72260;65.870;13.210;2024-03-23T13:45:46;2.55;;;0.75;;
82574;SDS011;72260;65.870;13.210;2024-03-23T13:48:14;0.55;;;0.40;;
82574;SDS011;72260;65.870;13.210;2024-03-23T13:50:41;0.38;;;0.38;;
82574;SDS011;72260;65.870;13.210;2024-03-23T13:53:07;6.55;;;0.52;;
82574;SDS011;72260;65.870;13.210;2024-03-23T13:55:33;1.83;;;0.32;;
82574;SDS011;72260;65.870;13.210;2024-03-23T13:57:59;1.45;;;0.32;;
82574;SDS011;72260;65.870;13.210;2024-03-23T14:00:24;0.40;;;0.40;;
82574;SDS011;72260;65.870;13.210;2024-03-23T14:02:50;0.70;;;0.30;;
82574;SDS011;72260;65.870;13.210;2024-03-23T14:05:15;2.53;;;0.22;;
82574;SDS011;72260;65.870;13.210;2024-03-23T14:07:41;3.72;;;0.93;;
82574;SDS011;72260;65.870;13.210;2024-03-23T14:10:07;2.40;;;0.50;;
82574;SDS011;72260;65.870;13.210;2024-03-23T14:12:38;1.77;;;0.40;;
82574;SDS011;72260;65.870;13.210;2024-03-23T14:15:07;5.68;;;0.60;;
82574;SDS011;72260;65.870;13.210;2024-03-23T14:17:33;1.17;;;0.40;;
82574;SDS011;72260;65.870;13.210;2024-03-23T14:19:58;2.70;;;0.45;;
82574;SDS011;72260;65.870;13.210;2024-03-23T14:22:30;0.80;;;0.30;;
82574;SDS011;72260;65.870;13.210;2024-03-23T14:24:57;0.47;;;0.38;;
82574;SDS011;72260;65.870;13.210;2024-03-23T14:27:23;0.30;;;0.30;;
82574;SDS011;72260;65.870;13.210;2024-03-23T14:29:49;0.45;;;0.30;;
82574;SDS011;72260;65.870;13.210;2024-03-23T14:32:14;0.38;;;0.28;;
82574;SDS011;72260;65.870;13.210;2024-03-23T14:34:40;1.77;;;0.80;;
82574;SDS011;72260;65.870;13.210;2024-03-23T14:37:06;0.52;;;0.35;;
82574;SDS011;72260;65.870;13.210;2024-03-23T14:39:32;0.32;;;0.32;;
82574;SDS011;72260;65.870;13.210;2024-03-23T14:42:00;1.38;;;0.50;;
82574;SDS011;72260;65.870;13.210;2024-03-23T14:44:28;4.15;;;0.60;;
82574;SDS011;72260;65.870;13.210;2024-03-23T14:46:54;0.20;;;0.20;;
82574;SDS011;72260;65.870;13.210;2024-03-23T14:49:24;1.05;;;0.20;;
82574;SDS011;72260;65.870;13.210;2024-03-23T14:51:50;0.52;;;0.20;;
82574;SDS011;72260;65.870;13.210;2024-03-23T14:54:15;0.47;;;0.30;;
82574;SDS011;72260;65.870;13.210;2024-03-23T14:56:41;2.65;;;0.70;;
82574;SDS011;72260;65.870;13.210;2024-03-23T14:59:06;0.43;;;0.43;;
82574;SDS011;72260;65.870;13.210;2024-03-23T15:01:32;0.57;;;0.57;;
82574;SDS011;72260;65.870;13.210;2024-03-23T15:03:59;2.20;;;0.40;;
82574;SDS011;72260;65.870;13.210;2024-03-23T15:06:24;0.28;;;0.22;;
82574;SDS011;72260;65.870;13.210;2024-03-23T15:08:50;1.42;;;0.35;;
82574;SDS011;72260;65.870;13.210;2024-03-23T15:11:15;1.15;;;0.68;;
82574;SDS011;72260;65.870;13.210;2024-03-23T15:13:44;1.30;;;0.57;;
82574;SDS011;72260;65.870;13.210;2024-03-23T15:16:09;0.30;;;0.25;;
82574;SDS011;72260;65.870;13.210;2024-03-23T15:18:35;0.20;;;0.20;;
82574;SDS011;72260;65.870;13.210;2024-03-23T15:21:01;0.10;;;0.10;;
82574;SDS011;72260;65.870;13.210;2024-03-23T15:23:28;0.40;;;0.40;;
82574;SDS011;72260;65.870;13.210;2024-03-23T15:28:20;1.05;;;0.73;;
82574;SDS011;72260;65.870;13.210;2024-03-23T15:30:46;0.40;;;0.40;;
82574;SDS011;72260;65.870;13.210;2024-03-23T15:33:12;0.38;;;0.38;;
82574;SDS011;72260;65.870;13.210;2024-03-23T15:35:37;2.97;;;0.68;;